createdAt,value
2023-04-11T00:01:43.843Z,71.27
2023-04-11T00:04:17.952Z,71.18
2023-04-11T00:06:51.872Z,70.93
2023-04-11T00:09:25.736Z,71.03
2023-04-11T00:12:02.955Z,70.94
2023-04-11T00:14:36.766Z,71.22
2023-04-11T00:17:13.223Z,71.26
2023-04-11T00:19:47.525Z,71.21
2023-04-11T00:22:24.633Z,71.12
2023-04-11T00:24:56.443Z,70.90
2023-04-11T00:27:30.846Z,70.88
2023-04-11T00:30:04.612Z,70.88
2023-04-11T00:32:38.788Z,71.24
2023-04-11T00:35:13.457Z,71.26
2023-04-11T00:37:47.679Z,71.34
2023-04-11T00:40:21.615Z,71.33
2023-04-11T00:42:55.623Z,71.09
2023-04-11T00:45:29.598Z,71.43
2023-04-11T00:48:03.584Z,71.12
2023-04-11T00:50:37.297Z,71.30
2023-04-11T00:53:12.124Z,71.14
2023-04-11T00:55:46.135Z,71.24
2023-04-11T00:58:19.834Z,71.01
2023-04-11T01:00:53.518Z,71.17
2023-04-11T01:03:27.569Z,71.36
2023-04-11T01:06:01.463Z,71.24
2023-04-11T01:08:36.014Z,71.33
2023-04-11T01:11:11.096Z,71.60
2023-04-11T01:13:45.407Z,71.58
2023-04-11T01:16:21.942Z,71.63
2023-04-11T01:18:56.405Z,71.84
2023-04-11T01:21:30.487Z,71.86
2023-04-11T01:24:04.458Z,71.74
2023-04-11T01:26:38.045Z,71.81
2023-04-11T01:29:12.104Z,71.95
2023-04-11T01:31:47.045Z,71.77
2023-04-11T01:34:21.453Z,71.95
2023-04-11T01:36:55.225Z,72.04
2023-04-11T01:39:29.257Z,72.33
2023-04-11T01:42:04.607Z,72.16
2023-04-11T01:44:39.147Z,72.29
2023-04-11T01:47:12.882Z,72.56
2023-04-11T01:49:47.667Z,72.51
2023-04-11T01:52:21.579Z,72.52
2023-04-11T01:54:55.517Z,72.60
2023-04-11T01:57:29.960Z,72.79
2023-04-11T02:00:04.593Z,72.74
2023-04-11T02:02:38.422Z,72.82
2023-04-11T02:05:13.504Z,73.14
2023-04-11T02:07:47.448Z,72.84
2023-04-11T02:10:21.321Z,73.08
2023-04-11T02:12:55.238Z,73.24
2023-04-11T02:15:29.487Z,73.31
2023-04-11T02:18:03.033Z,73.50
2023-04-11T02:20:37.868Z,73.22
2023-04-11T02:23:11.744Z,73.02
2023-04-11T02:25:46.162Z,72.93
2023-04-11T02:28:20.093Z,73.02
2023-04-11T02:30:54.448Z,73.44
2023-04-11T02:33:28.145Z,73.15
2023-04-11T02:36:04.230Z,73.56
2023-04-11T02:38:38.596Z,73.44
2023-04-11T02:41:12.742Z,73.66
2023-04-11T02:43:47.126Z,73.68
2023-04-11T02:46:21.357Z,73.44
2023-04-11T02:48:55.327Z,73.56
2023-04-11T02:51:29.483Z,73.31
2023-04-11T02:54:03.342Z,73.21
2023-04-11T02:56:39.330Z,72.96
2023-04-11T02:59:13.161Z,72.76
2023-04-11T03:01:47.399Z,72.46
2023-04-11T03:04:21.281Z,72.29
2023-04-11T03:06:55.452Z,72.46
2023-04-11T03:09:29.111Z,72.30
2023-04-11T03:12:02.992Z,72.16
2023-04-11T03:14:36.681Z,71.91
2023-04-11T03:17:10.693Z,71.83
2023-04-11T03:19:44.458Z,71.38
2023-04-11T03:22:18.559Z,71.06
2023-04-11T03:24:52.252Z,70.60
2023-04-11T03:27:25.876Z,70.09
2023-04-11T03:29:59.657Z,69.83
2023-04-11T03:32:33.574Z,69.18
2023-04-11T03:35:09.286Z,68.17
2023-04-11T03:37:42.976Z,66.86
2023-04-11T03:40:18.927Z,65.09
2023-04-11T03:42:53.556Z,63.05
2023-04-11T03:45:28.425Z,61.01
2023-04-11T03:48:02.375Z,58.83
2023-04-11T03:50:37.372Z,56.32
2023-04-11T03:53:11.532Z,54.23
2023-04-11T03:55:47.069Z,52.20
2023-04-11T03:58:22.024Z,50.59
2023-04-11T04:00:55.946Z,49.16
2023-04-11T04:03:30.027Z,47.43
2023-04-11T04:06:14.820Z,45.91
2023-04-11T04:08:49.817Z,43.55
2023-04-11T04:11:24.324Z,41.89
2023-04-11T04:13:58.818Z,40.56
2023-04-11T04:16:34.777Z,39.24
2023-04-11T04:19:11.162Z,37.82
2023-04-11T04:21:47.890Z,36.25
2023-04-11T04:24:21.738Z,35.84
2023-04-11T04:26:58.375Z,35.32
2023-04-11T04:29:39.116Z,35.58
2023-04-11T04:32:15.231Z,34.49
2023-04-11T04:34:50.368Z,33.15
2023-04-11T04:37:28.680Z,31.99
2023-04-11T04:40:08.836Z,30.86
2023-04-11T04:42:45.865Z,29.99
2023-04-11T04:45:21.322Z,29.18
2023-04-11T04:47:56.111Z,27.85
2023-04-11T04:50:30.396Z,26.49
2023-04-11T04:53:04.642Z,25.62
2023-04-11T04:55:38.631Z,24.82
2023-04-11T04:58:13.267Z,24.05
2023-04-11T05:00:50.087Z,23.18
2023-04-11T05:03:24.547Z,22.43
2023-04-11T05:06:01.771Z,21.45
2023-04-11T05:08:36.225Z,20.24
2023-04-11T05:11:10.290Z,19.82
2023-04-11T05:13:43.903Z,19.06
2023-04-11T05:16:18.105Z,18.63
2023-04-11T05:18:51.705Z,18.06
2023-04-11T05:21:25.686Z,17.10
2023-04-11T05:23:59.391Z,16.54
2023-04-11T05:26:33.472Z,16.08
2023-04-11T05:29:07.531Z,15.49
2023-04-11T05:31:41.764Z,15.34
2023-04-11T05:34:16.945Z,15.03
2023-04-11T05:36:51.795Z,14.23
2023-04-11T05:39:25.887Z,13.86
2023-04-11T05:42:00.029Z,13.43
2023-04-11T05:44:33.952Z,12.77
2023-04-11T05:47:07.641Z,12.11
2023-04-11T05:49:42.753Z,11.62
2023-04-11T05:52:17.017Z,10.96
2023-04-11T05:54:58.505Z,10.89
2023-04-11T05:57:32.361Z,10.55
2023-04-11T06:00:13.257Z,10.16
2023-04-11T06:02:48.278Z,10.02
2023-04-11T06:05:22.805Z,9.85
2023-04-11T06:07:59.256Z,10.04
2023-04-11T06:10:34.207Z,9.88
2023-04-11T06:13:09.413Z,9.84
2023-04-11T06:15:43.524Z,9.65
2023-04-11T06:18:17.460Z,9.35
2023-04-11T06:20:51.453Z,9.26
2023-04-11T06:23:25.443Z,9.16
2023-04-11T06:26:01.640Z,9.56
2023-04-11T06:28:35.767Z,9.67
2023-04-11T06:31:13.006Z,10.07
2023-04-11T06:33:47.052Z,10.10
2023-04-11T06:36:21.081Z,10.16
2023-04-11T06:38:54.800Z,10.50
2023-04-11T06:41:29.315Z,10.77
2023-04-11T06:44:03.464Z,11.01
2023-04-11T06:46:37.284Z,10.75
2023-04-11T06:49:12.314Z,10.66
2023-04-11T06:51:47.755Z,10.20
2023-04-11T06:54:24.673Z,9.52
2023-04-11T06:56:59.618Z,9.72
2023-04-11T06:59:34.017Z,9.95
2023-04-11T07:02:08.407Z,9.94
2023-04-11T07:04:42.820Z,10.32
2023-04-11T07:07:17.495Z,11.04
2023-04-11T07:09:51.703Z,11.84
2023-04-11T07:12:25.480Z,11.69
2023-04-11T07:14:59.639Z,11.69
2023-04-11T07:17:34.049Z,11.35
2023-04-11T07:20:12.287Z,10.92
2023-04-11T07:22:46.824Z,11.02
2023-04-11T07:25:23.198Z,11.25
2023-04-11T07:27:57.590Z,11.04
2023-04-11T07:30:30.381Z,11.52
2023-04-11T07:33:06.214Z,12.24
2023-04-11T07:35:40.332Z,12.91
2023-04-11T07:38:16.196Z,13.37
2023-04-11T07:40:50.674Z,13.83
2023-04-11T07:43:25.666Z,13.89
2023-04-11T07:46:00.390Z,14.13
2023-04-11T07:48:34.953Z,14.50
2023-04-11T07:51:09.848Z,14.57
2023-04-11T07:53:43.609Z,14.92
2023-04-11T07:56:18.714Z,15.08
2023-04-11T07:58:53.383Z,15.64
2023-04-11T08:01:28.475Z,16.38
2023-04-11T08:04:27.736Z,16.61
2023-04-11T08:07:04.027Z,17.12
2023-04-11T08:09:42.992Z,17.32
2023-04-11T08:12:17.259Z,17.41
2023-04-11T08:14:55.411Z,17.93
2023-04-11T08:17:29.922Z,18.36
2023-04-11T08:20:05.633Z,19.37
2023-04-11T08:22:42.626Z,20.54
2023-04-11T08:25:19.704Z,21.63
2023-04-11T08:27:56.278Z,22.23
2023-04-11T08:30:30.661Z,22.85
2023-04-11T08:33:05.207Z,23.66
2023-04-11T08:35:43.580Z,24.22
2023-04-11T08:38:19.337Z,25.18
2023-04-11T08:40:52.385Z,25.49
2023-04-11T08:43:26.395Z,25.65
2023-04-11T08:46:00.550Z,26.10
2023-04-11T08:48:34.488Z,26.70
2023-04-11T08:51:18.511Z,26.89
2023-04-11T08:54:14.146Z,27.47
2023-04-11T08:56:51.936Z,28.03
2023-04-11T08:59:27.852Z,28.36
2023-04-11T09:02:25.274Z,28.87
2023-04-11T09:04:59.889Z,28.96
2023-04-11T09:07:35.672Z,29.67
2023-04-11T09:10:26.430Z,30.12
2023-04-11T09:13:01.146Z,30.51
2023-04-11T09:15:37.292Z,31.19
2023-04-11T09:18:11.119Z,31.43
2023-04-11T09:20:45.277Z,31.43
2023-04-11T09:23:32.059Z,31.82
2023-04-11T09:26:08.675Z,31.95
2023-04-11T09:28:53.142Z,32.11
2023-04-11T09:31:44.772Z,31.95
2023-04-11T09:34:28.548Z,31.34
2023-04-11T09:37:04.526Z,31.39
2023-04-11T09:39:38.390Z,31.54
2023-04-11T09:42:27.316Z,31.98
2023-04-11T09:45:01.539Z,32.09
2023-04-11T09:47:37.912Z,32.18
2023-04-11T09:50:11.905Z,32.75
2023-04-11T09:52:47.874Z,32.74
2023-04-11T09:55:26.105Z,32.83
2023-04-11T09:58:02.967Z,33.02
2023-04-11T10:00:36.887Z,33.35
2023-04-11T10:03:10.786Z,33.93
2023-04-11T10:05:45.758Z,34.53
2023-04-11T10:08:29.021Z,35.26
2023-04-11T10:11:07.867Z,35.60
2023-04-11T10:13:46.498Z,35.93
2023-04-11T10:16:22.945Z,36.06
2023-04-11T10:19:27.769Z,36.33
2023-04-11T10:22:04.816Z,36.75
2023-04-11T10:24:40.625Z,37.06
2023-04-11T10:27:14.449Z,36.92
2023-04-11T10:29:55.028Z,37.10
2023-04-11T10:32:29.974Z,37.11
2023-04-11T10:35:26.331Z,37.26
2023-04-11T10:38:00.460Z,37.76
2023-04-11T10:40:34.968Z,37.93
2023-04-11T10:46:29.471Z,38.15
2023-04-11T10:49:02.748Z,38.51
2023-04-11T10:51:35.129Z,38.81
2023-04-11T10:54:26.477Z,39.14
2023-04-11T10:56:58.554Z,39.55
2023-04-11T11:00:00.833Z,39.75
2023-04-11T11:02:43.155Z,40.28
2023-04-11T11:05:25.186Z,40.36
2023-04-11T11:07:55.982Z,40.31
2023-04-11T11:10:46.875Z,40.62
2023-04-11T11:13:19.796Z,40.80
2023-04-11T11:15:52.794Z,41.20
2023-04-11T11:18:23.383Z,41.65
2023-04-11T11:20:57.519Z,42.07
2023-04-11T11:23:28.257Z,42.85
2023-04-11T11:26:00.960Z,43.44
2023-04-11T11:28:32.048Z,44.32
2023-04-11T11:31:04.178Z,45.29
2023-04-11T11:33:42.199Z,46.40
2023-04-11T11:36:13.283Z,46.86
2023-04-11T11:38:46.588Z,46.89
2023-04-11T11:41:17.825Z,46.74
2023-04-11T11:43:48.369Z,46.49
2023-04-11T11:46:21.568Z,45.86
2023-04-11T11:49:01.788Z,45.37
2023-04-11T11:51:42.697Z,44.72
2023-04-11T11:54:13.828Z,44.43
2023-04-11T11:56:52.668Z,44.13
2023-04-11T11:59:29.146Z,43.98
2023-04-11T12:01:58.408Z,43.83
2023-04-11T12:04:30.653Z,43.38
2023-04-11T12:07:10.079Z,43.05
2023-04-11T12:09:41.107Z,42.63
2023-04-11T12:12:12.267Z,42.38
2023-04-11T12:14:42.724Z,41.90
2023-04-11T12:17:16.216Z,41.59
2023-04-11T12:19:46.805Z,41.79
2023-04-11T12:22:17.416Z,41.72
2023-04-11T12:24:48.568Z,41.73
2023-04-11T12:27:19.719Z,41.54
2023-04-11T12:29:52.061Z,41.48
2023-04-11T12:32:27.209Z,41.59
2023-04-11T12:34:58.274Z,41.62
2023-04-11T12:37:29.220Z,41.84
2023-04-11T12:40:00.232Z,42.08
2023-04-11T12:42:32.220Z,41.94
2023-04-11T12:45:04.396Z,41.75
2023-04-11T12:47:34.887Z,41.83
2023-04-11T12:50:07.920Z,41.82
2023-04-11T12:52:42.077Z,41.90
2023-04-11T12:55:14.683Z,41.84
2023-04-11T12:57:46.007Z,41.96
2023-04-11T13:00:19.174Z,42.04
2023-04-11T13:02:51.380Z,42.25
2023-04-11T13:05:27.655Z,42.58
2023-04-11T13:07:59.705Z,42.80
2023-04-11T13:10:30.539Z,43.04
2023-04-11T13:13:11.640Z,43.02
2023-04-11T13:15:48.637Z,43.18
2023-04-11T13:18:19.226Z,43.16
2023-04-11T13:20:49.859Z,43.51
2023-04-11T13:23:20.659Z,43.56
2023-04-11T13:26:00.752Z,43.65
2023-04-11T13:28:34.828Z,43.74
2023-04-11T13:31:10.699Z,43.78
2023-04-11T13:33:41.493Z,43.60
2023-04-11T13:36:13.571Z,43.74
2023-04-11T13:38:44.375Z,43.87
2023-04-11T13:41:15.061Z,44.31
2023-04-11T13:43:50.050Z,44.12
2023-04-11T13:46:25.276Z,44.29
2023-04-11T13:48:56.695Z,44.28
2023-04-11T13:51:30.012Z,44.57
2023-04-11T13:54:02.388Z,44.65
2023-04-11T13:56:32.972Z,44.86
2023-04-11T13:59:04.279Z,44.97
2023-04-11T14:01:35.362Z,45.13
2023-04-11T14:04:21.875Z,45.42
2023-04-11T14:06:53.757Z,45.88
2023-04-11T14:09:30.672Z,46.56
2023-04-11T14:12:03.030Z,47.11
2023-04-11T14:14:34.693Z,47.61
2023-04-11T14:17:07.913Z,48.29
2023-04-11T14:19:42.407Z,48.91
2023-04-11T14:22:17.103Z,49.99
2023-04-11T14:24:50.104Z,50.87
2023-04-11T14:27:20.526Z,51.34
2023-04-11T14:29:55.413Z,52.09
2023-04-11T14:32:27.230Z,52.48
2023-04-11T14:34:58.395Z,53.28
2023-04-11T14:37:29.932Z,54.00
2023-04-11T14:40:00.916Z,53.92
2023-04-11T14:42:32.626Z,54.02
2023-04-11T14:48:55.794Z,54.34
2023-04-11T14:51:28.826Z,54.18
2023-04-11T14:53:59.990Z,53.93
2023-04-11T14:56:32.240Z,53.79
2023-04-11T14:59:03.098Z,53.84
2023-04-11T15:01:33.968Z,53.94
2023-04-11T15:04:05.011Z,54.05
2023-04-11T15:06:39.797Z,54.06
2023-04-11T15:09:19.893Z,53.96
2023-04-11T15:11:56.801Z,53.81
2023-04-11T15:14:31.234Z,53.70
2023-04-11T15:17:05.094Z,53.72
2023-04-11T15:19:43.185Z,53.89
2023-04-11T15:22:13.841Z,54.00
2023-04-11T15:24:50.730Z,54.11
2023-04-11T15:27:24.345Z,54.36
2023-04-11T15:29:59.590Z,54.66
2023-04-11T15:32:30.479Z,54.77
2023-04-11T15:35:03.985Z,54.59
2023-04-11T15:37:34.498Z,54.68
2023-04-11T15:40:12.383Z,54.59
2023-04-11T15:42:45.109Z,54.02
2023-04-11T15:45:16.916Z,53.67
2023-04-11T15:47:55.241Z,53.65
2023-04-11T15:50:27.336Z,53.62
2023-04-11T15:53:03.148Z,53.56
2023-04-11T15:55:38.241Z,53.51
2023-04-11T15:58:13.207Z,53.62
2023-04-11T16:00:44.920Z,53.60
2023-04-11T16:03:32.486Z,53.68
2023-04-11T16:06:05.549Z,53.66
2023-04-11T16:08:36.141Z,53.71
2023-04-11T16:11:08.345Z,53.79
2023-04-11T16:13:43.893Z,53.79
2023-04-11T16:16:14.682Z,54.02
2023-04-11T16:18:48.286Z,54.05
2023-04-11T16:21:21.777Z,53.99
2023-04-11T16:23:55.326Z,54.01
2023-04-11T16:26:26.865Z,54.17
2023-04-11T16:29:00.388Z,54.42
2023-04-11T16:34:51.777Z,54.48
2023-04-11T16:37:26.265Z,54.63
2023-04-11T16:40:00.255Z,54.46
2023-04-11T16:42:31.547Z,54.56
2023-04-11T16:45:06.815Z,54.69
2023-04-11T16:47:39.401Z,54.68
2023-04-11T16:50:12.525Z,54.67
2023-04-11T16:52:51.138Z,54.67
2023-04-11T16:55:23.271Z,54.85
2023-04-11T16:57:56.127Z,54.93
2023-04-11T17:00:29.733Z,55.12
2023-04-11T17:03:14.519Z,55.36
2023-04-11T17:05:57.512Z,56.25
2023-04-11T17:08:30.508Z,56.72
2023-04-11T17:11:09.113Z,56.95
2023-04-11T17:13:45.758Z,57.04
2023-04-11T17:16:21.102Z,57.27
2023-04-11T17:18:53.473Z,57.29
2023-04-11T17:21:34.095Z,57.15
2023-04-11T17:24:05.256Z,57.16
2023-04-11T17:26:41.851Z,57.34
2023-04-11T17:29:13.477Z,57.32
2023-04-11T17:31:48.504Z,57.45
2023-04-11T17:34:19.274Z,57.90
2023-04-11T17:36:50.595Z,57.75
2023-04-11T17:39:23.423Z,57.58
2023-04-11T17:41:55.565Z,57.77
2023-04-11T17:44:26.974Z,57.69
2023-04-11T17:46:58.601Z,57.61
2023-04-11T17:49:31.714Z,57.72
2023-04-11T17:52:03.234Z,57.81
2023-04-11T17:54:51.473Z,57.79
2023-04-11T17:57:41.582Z,57.79
2023-04-11T18:00:23.571Z,57.87
2023-04-11T18:03:10.313Z,57.82
2023-04-11T18:06:38.051Z,58.03
2023-04-11T18:09:32.674Z,58.05
2023-04-11T18:12:34.525Z,58.06
2023-04-11T18:15:55.174Z,58.40
2023-04-11T18:18:56.747Z,58.48
2023-04-11T18:21:48.374Z,58.65
2023-04-11T18:24:23.948Z,58.91
2023-04-11T18:27:03.982Z,59.08
2023-04-11T18:29:54.166Z,59.12
2023-04-11T18:32:32.350Z,59.14
2023-04-11T18:35:30.698Z,58.94
2023-04-11T18:38:16.189Z,59.11
2023-04-11T18:40:56.535Z,59.06
2023-04-11T18:43:38.624Z,59.11
2023-04-11T18:46:28.229Z,58.94
2023-04-11T18:49:22.636Z,59.06
2023-04-11T18:52:17.092Z,59.03
2023-04-11T18:55:22.284Z,58.97
2023-04-11T18:58:15.129Z,59.00
2023-04-11T19:00:54.326Z,59.03
2023-04-11T19:03:29.031Z,58.96
2023-04-11T19:06:18.650Z,58.97
2023-04-11T19:08:55.731Z,58.98
2023-04-11T19:11:45.063Z,58.94
2023-04-11T19:15:00.787Z,58.84
2023-04-11T19:18:26.093Z,58.97
2023-04-11T19:22:05.053Z,59.15
2023-04-11T19:25:00.865Z,59.06
2023-04-11T19:28:01.348Z,58.82
2023-04-11T19:31:05.199Z,58.81
2023-04-11T19:34:01.179Z,59.02
2023-04-11T19:36:56.546Z,59.01
2023-04-11T19:39:45.952Z,59.20
2023-04-11T19:42:43.322Z,59.31
2023-04-11T19:46:05.103Z,59.38
2023-04-11T19:48:44.545Z,59.48
2023-04-11T19:51:21.848Z,59.38
2023-04-11T19:53:59.428Z,59.64
2023-04-11T19:56:33.387Z,59.51
2023-04-11T19:59:04.701Z,59.60
2023-04-11T20:01:36.513Z,59.69
2023-04-11T20:04:32.500Z,59.88
2023-04-11T20:07:11.520Z,60.08
2023-04-11T20:09:56.672Z,60.25
2023-04-11T20:12:39.991Z,60.26
2023-04-11T20:15:55.925Z,60.53
2023-04-11T20:18:37.641Z,60.69
2023-04-11T20:21:17.865Z,60.81
2023-04-11T20:23:51.977Z,60.73
2023-04-11T20:26:29.025Z,60.90
2023-04-11T20:29:01.695Z,60.86
2023-04-11T20:31:43.929Z,60.83
2023-04-11T20:34:19.139Z,60.81
2023-04-11T20:36:56.759Z,60.87
2023-04-11T20:39:27.214Z,60.99
2023-04-11T20:42:10.663Z,61.14
2023-04-11T20:44:50.426Z,61.16
2023-04-11T20:47:38.097Z,61.26
2023-04-11T20:50:21.399Z,61.35
2023-04-11T20:53:00.987Z,61.40
2023-04-11T20:55:43.088Z,61.55
2023-04-11T20:58:26.278Z,61.85
2023-04-11T21:01:00.326Z,62.06
2023-04-11T21:03:36.508Z,62.20
2023-04-11T21:06:11.723Z,62.22
2023-04-11T21:08:46.700Z,62.32
2023-04-11T21:11:23.497Z,62.29
2023-04-11T21:13:56.036Z,62.38
2023-04-11T21:16:29.208Z,62.45
2023-04-11T21:19:04.160Z,62.52
2023-04-11T21:21:46.858Z,62.59
2023-04-11T21:24:26.789Z,62.72
2023-04-11T21:27:00.069Z,62.72
2023-04-11T21:29:31.941Z,62.72
2023-04-11T21:32:03.569Z,62.81
2023-04-11T21:34:34.997Z,62.79
2023-04-11T21:37:05.661Z,62.66
2023-04-11T21:39:38.458Z,62.79
2023-04-11T21:42:09.214Z,62.92
2023-04-11T21:44:39.838Z,63.00
2023-04-11T21:47:10.628Z,63.12
2023-04-11T21:49:41.429Z,63.24
2023-04-11T21:52:12.057Z,63.41
2023-04-11T21:54:44.671Z,63.46
2023-04-11T21:57:15.938Z,63.34
2023-04-11T21:59:51.884Z,63.36
2023-04-11T22:02:29.180Z,63.27
2023-04-11T22:05:07.332Z,63.22
2023-04-11T22:07:39.050Z,63.39
2023-04-11T22:10:11.930Z,63.27
2023-04-11T22:12:45.915Z,63.46
2023-04-11T22:15:18.779Z,63.46
2023-04-11T22:17:50.498Z,63.46
2023-04-11T22:20:24.049Z,63.45
2023-04-11T22:22:57.755Z,63.75
2023-04-11T22:25:32.959Z,63.71
2023-04-11T22:28:04.761Z,63.81
2023-04-11T22:30:37.913Z,63.94
2023-04-11T22:33:13.522Z,64.02
2023-04-11T22:35:47.294Z,63.94
2023-04-11T22:38:17.743Z,64.00
2023-04-11T22:40:48.818Z,64.18
2023-04-11T22:43:19.371Z,64.27
2023-04-11T22:45:49.713Z,64.34
2023-04-11T22:48:20.602Z,64.27
2023-04-11T22:50:52.742Z,64.54
2023-04-11T22:53:24.742Z,64.52
2023-04-11T22:55:55.540Z,64.58
2023-04-11T22:58:26.012Z,64.48
2023-04-11T23:00:56.405Z,64.59
2023-04-11T23:06:17.029Z,64.79
2023-04-11T23:08:47.705Z,64.86
2023-04-11T23:11:18.172Z,64.97
2023-04-11T23:13:49.992Z,64.98
2023-04-11T23:16:23.275Z,64.80
2023-04-11T23:19:04.559Z,64.88
2023-04-11T23:21:43.004Z,64.88
2023-04-11T23:24:13.747Z,64.73
2023-04-11T23:26:45.152Z,64.90
2023-04-11T23:29:22.069Z,64.97
2023-04-11T23:31:53.298Z,65.15
2023-04-11T23:34:24.155Z,65.02
2023-04-11T23:36:57.856Z,65.30
2023-04-11T23:39:28.286Z,65.25
2023-04-11T23:41:58.661Z,65.31
2023-04-11T23:44:28.802Z,65.53
2023-04-11T23:47:00.681Z,65.49
2023-04-11T23:49:32.550Z,65.40
2023-04-11T23:52:03.564Z,65.40
2023-04-11T23:54:36.200Z,65.33
2023-04-11T23:57:07.033Z,65.47
2023-04-11T23:59:38.221Z,65.52
